Sheridan, Michigan
Current Conditions -  °F | °C
As of 2:34 PM on Friday 31 Oct 2014 (Local Time) from KY70 Reporting Station
Light Snow Light Snow  
Wind Chill: 26°   Ceiling: 1400
Heat Index: 37°   Visibility: 10mi
Dew Point: 33°   Wind: 20mph
Humidity: 88%   Direction: 20°NNE
Pressure: 30.01"   Gusts: 31mph
Location:  43.21°N, 85.07°W
Report Text: KY70 311834Z AUTO 02017G27KT 10SM -SN BKN014 BKN020 OVC048 03/01 A3001 RMK AO2 T00250007
Loading
Personal Weather Stations






























Interactive Weather Map
Tropical Storm Tracking
New forecast layout! Learn more

10-Day Weather Forecast

Advertisements
Track Severe Weather on mobile